sensor_id;sensor_type;location;lat;lon;timestamp;P1;durP1;ratioP1;P2;durP2;ratioP2
60068;SDS011;45945;53.350;55.922;2023-02-01T00:00:11;10.10;;;2.97;;
60068;SDS011;45945;53.350;55.922;2023-02-01T00:01:12;8.23;;;2.22;;
60068;SDS011;45945;53.350;55.922;2023-02-01T00:02:13;8.05;;;2.17;;
60068;SDS011;45945;53.350;55.922;2023-02-01T00:03:14;7.45;;;2.60;;
60068;SDS011;45945;53.350;55.922;2023-02-01T00:04:15;4.97;;;1.63;;
60068;SDS011;45945;53.350;55.922;2023-02-01T00:05:16;7.43;;;2.45;;
60068;SDS011;45945;53.350;55.922;2023-02-01T00:06:17;8.95;;;2.75;;
60068;SDS011;45945;53.350;55.922;2023-02-01T00:07:18;5.97;;;2.10;;
60068;SDS011;45945;53.350;55.922;2023-02-01T00:08:19;5.97;;;1.65;;
60068;SDS011;45945;53.350;55.922;2023-02-01T00:09:24;7.25;;;2.45;;
60068;SDS011;45945;53.350;55.922;2023-02-01T00:10:25;7.22;;;2.90;;
60068;SDS011;45945;53.350;55.922;2023-02-01T00:11:29;6.57;;;2.33;;
60068;SDS011;45945;53.350;55.922;2023-02-01T00:12:31;7.38;;;2.70;;
60068;SDS011;45945;53.350;55.922;2023-02-01T00:13:33;9.15;;;3.00;;
60068;SDS011;45945;53.350;55.922;2023-02-01T00:14:48;8.45;;;3.00;;
60068;SDS011;45945;53.350;55.922;2023-02-01T00:15:49;5.63;;;2.30;;
60068;SDS011;45945;53.350;55.922;2023-02-01T00:16:49;8.23;;;2.05;;
60068;SDS011;45945;53.350;55.922;2023-02-01T00:17:54;6.72;;;2.45;;
60068;SDS011;45945;53.350;55.922;2023-02-01T00:20:01;1.10;;;0.82;;
60068;SDS011;45945;53.350;55.922;2023-02-01T00:21:04;6.65;;;2.92;;
60068;SDS011;45945;53.350;55.922;2023-02-01T00:22:04;5.93;;;1.80;;
60068;SDS011;45945;53.350;55.922;2023-02-01T00:23:05;7.88;;;2.63;;
60068;SDS011;45945;53.350;55.922;2023-02-01T00:24:09;7.55;;;2.45;;
60068;SDS011;45945;53.350;55.922;2023-02-01T00:25:10;7.97;;;2.80;;
60068;SDS011;45945;53.350;55.922;2023-02-01T00:26:12;7.55;;;2.35;;
60068;SDS011;45945;53.350;55.922;2023-02-01T00:27:14;7.70;;;2.45;;
60068;SDS011;45945;53.350;55.922;2023-02-01T00:28:18;6.43;;;2.08;;
60068;SDS011;45945;53.350;55.922;2023-02-01T00:29:19;5.70;;;1.98;;
60068;SDS011;45945;53.350;55.922;2023-02-01T00:30:20;7.20;;;2.33;;
60068;SDS011;45945;53.350;55.922;2023-02-01T00:31:21;6.80;;;1.88;;
60068;SDS011;45945;53.350;55.922;2023-02-01T00:32:23;6.50;;;2.20;;
60068;SDS011;45945;53.350;55.922;2023-02-01T00:33:24;6.95;;;1.90;;
60068;SDS011;45945;53.350;55.922;2023-02-01T00:34:25;5.68;;;1.67;;
60068;SDS011;45945;53.350;55.922;2023-02-01T00:35:26;4.75;;;1.67;;
60068;SDS011;45945;53.350;55.922;2023-02-01T00:36:27;7.07;;;2.28;;
60068;SDS011;45945;53.350;55.922;2023-02-01T00:37:29;6.47;;;2.05;;
60068;SDS011;45945;53.350;55.922;2023-02-01T00:38:31;6.60;;;1.75;;
60068;SDS011;45945;53.350;55.922;2023-02-01T00:39:32;6.82;;;2.33;;
60068;SDS011;45945;53.350;55.922;2023-02-01T00:40:34;6.10;;;1.85;;
60068;SDS011;45945;53.350;55.922;2023-02-01T00:41:34;5.80;;;1.85;;
60068;SDS011;45945;53.350;55.922;2023-02-01T00:42:35;5.97;;;1.75;;
60068;SDS011;45945;53.350;55.922;2023-02-01T00:43:36;4.43;;;1.30;;
60068;SDS011;45945;53.350;55.922;2023-02-01T00:44:37;4.40;;;1.33;;
60068;SDS011;45945;53.350;55.922;2023-02-01T00:45:38;6.55;;;2.25;;
60068;SDS011;45945;53.350;55.922;2023-02-01T00:46:38;4.28;;;1.85;;
60068;SDS011;45945;53.350;55.922;2023-02-01T00:47:39;8.00;;;2.47;;
60068;SDS011;45945;53.350;55.922;2023-02-01T00:48:40;4.53;;;1.77;;
60068;SDS011;45945;53.350;55.922;2023-02-01T00:49:41;6.68;;;2.53;;
60068;SDS011;45945;53.350;55.922;2023-02-01T00:50:42;5.95;;;1.95;;
60068;SDS011;45945;53.350;55.922;2023-02-01T00:51:43;4.25;;;1.17;;
60068;SDS011;45945;53.350;55.922;2023-02-01T00:52:44;3.50;;;1.30;;
60068;SDS011;45945;53.350;55.922;2023-02-01T00:53:45;6.07;;;2.33;;
60068;SDS011;45945;53.350;55.922;2023-02-01T00:54:46;6.45;;;2.38;;
60068;SDS011;45945;53.350;55.922;2023-02-01T00:55:47;7.00;;;2.20;;
60068;SDS011;45945;53.350;55.922;2023-02-01T00:56:48;7.35;;;2.53;;
60068;SDS011;45945;53.350;55.922;2023-02-01T00:57:49;6.70;;;2.75;;
60068;SDS011;45945;53.350;55.922;2023-02-01T00:58:50;8.00;;;2.55;;
60068;SDS011;45945;53.350;55.922;2023-02-01T00:59:51;5.03;;;1.92;;
60068;SDS011;45945;53.350;55.922;2023-02-01T01:01:02;7.68;;;2.15;;
60068;SDS011;45945;53.350;55.922;2023-02-01T01:02:04;6.50;;;2.50;;
60068;SDS011;45945;53.350;55.922;2023-02-01T01:03:05;6.10;;;2.22;;
60068;SDS011;45945;53.350;55.922;2023-02-01T01:04:18;5.22;;;2.35;;
60068;SDS011;45945;53.350;55.922;2023-02-01T01:05:19;7.38;;;2.60;;
60068;SDS011;45945;53.350;55.922;2023-02-01T01:06:21;6.05;;;2.15;;
60068;SDS011;45945;53.350;55.922;2023-02-01T01:07:22;4.88;;;1.90;;
60068;SDS011;45945;53.350;55.922;2023-02-01T01:08:23;7.63;;;2.90;;
60068;SDS011;45945;53.350;55.922;2023-02-01T01:09:24;2.72;;;1.13;;
60068;SDS011;45945;53.350;55.922;2023-02-01T01:10:44;5.00;;;2.40;;
60068;SDS011;45945;53.350;55.922;2023-02-01T01:11:44;5.03;;;1.40;;
60068;SDS011;45945;53.350;55.922;2023-02-01T01:12:45;6.72;;;2.42;;
60068;SDS011;45945;53.350;55.922;2023-02-01T01:13:47;4.60;;;1.40;;
60068;SDS011;45945;53.350;55.922;2023-02-01T01:14:48;6.57;;;2.70;;
60068;SDS011;45945;53.350;55.922;2023-02-01T01:15:48;8.98;;;2.92;;
60068;SDS011;45945;53.350;55.922;2023-02-01T01:16:49;5.10;;;1.77;;
60068;SDS011;45945;53.350;55.922;2023-02-01T01:17:50;7.72;;;2.90;;
60068;SDS011;45945;53.350;55.922;2023-02-01T01:18:51;5.55;;;2.35;;
60068;SDS011;45945;53.350;55.922;2023-02-01T01:20:11;7.03;;;2.60;;
60068;SDS011;45945;53.350;55.922;2023-02-01T01:21:12;6.88;;;2.65;;
60068;SDS011;45945;53.350;55.922;2023-02-01T01:22:14;5.55;;;1.83;;
60068;SDS011;45945;53.350;55.922;2023-02-01T01:23:15;6.38;;;2.20;;
60068;SDS011;45945;53.350;55.922;2023-02-01T01:24:15;6.97;;;2.17;;
60068;SDS011;45945;53.350;55.922;2023-02-01T01:25:16;5.50;;;1.98;;
60068;SDS011;45945;53.350;55.922;2023-02-01T01:26:21;6.07;;;1.65;;
60068;SDS011;45945;53.350;55.922;2023-02-01T01:27:23;8.15;;;2.38;;
60068;SDS011;45945;53.350;55.922;2023-02-01T01:28:25;6.35;;;1.80;;
60068;SDS011;45945;53.350;55.922;2023-02-01T01:29:26;5.20;;;1.55;;
60068;SDS011;45945;53.350;55.922;2023-02-01T01:30:27;8.05;;;2.85;;
60068;SDS011;45945;53.350;55.922;2023-02-01T01:31:28;6.88;;;2.50;;
60068;SDS011;45945;53.350;55.922;2023-02-01T01:32:29;2.22;;;1.05;;
60068;SDS011;45945;53.350;55.922;2023-02-01T01:33:29;6.85;;;2.30;;
60068;SDS011;45945;53.350;55.922;2023-02-01T01:34:30;6.70;;;2.13;;
60068;SDS011;45945;53.350;55.922;2023-02-01T01:35:31;7.28;;;2.60;;
60068;SDS011;45945;53.350;55.922;2023-02-01T01:36:32;8.25;;;2.72;;
60068;SDS011;45945;53.350;55.922;2023-02-01T01:37:33;5.13;;;1.92;;
60068;SDS011;45945;53.350;55.922;2023-02-01T01:38:35;7.00;;;2.15;;
60068;SDS011;45945;53.350;55.922;2023-02-01T01:39:36;5.97;;;2.42;;
60068;SDS011;45945;53.350;55.922;2023-02-01T01:40:37;8.05;;;2.63;;
60068;SDS011;45945;53.350;55.922;2023-02-01T01:41:39;5.88;;;1.75;;
60068;SDS011;45945;53.350;55.922;2023-02-01T01:42:51;7.05;;;2.17;;
60068;SDS011;45945;53.350;55.922;2023-02-01T01:43:58;5.78;;;1.83;;
60068;SDS011;45945;53.350;55.922;2023-02-01T01:45:03;6.82;;;2.25;;
60068;SDS011;45945;53.350;55.922;2023-02-01T01:46:06;2.78;;;1.08;;
60068;SDS011;45945;53.350;55.922;2023-02-01T01:47:07;7.70;;;2.53;;
60068;SDS011;45945;53.350;55.922;2023-02-01T01:48:30;6.97;;;3.55;;
60068;SDS011;45945;53.350;55.922;2023-02-01T01:49:30;5.35;;;2.05;;
60068;SDS011;45945;53.350;55.922;2023-02-01T01:50:34;9.95;;;3.08;;
60068;SDS011;45945;53.350;55.922;2023-02-01T01:51:37;6.13;;;2.30;;
60068;SDS011;45945;53.350;55.922;2023-02-01T01:52:39;6.57;;;2.55;;
60068;SDS011;45945;53.350;55.922;2023-02-01T01:53:54;3.53;;;1.45;;
60068;SDS011;45945;53.350;55.922;2023-02-01T01:54:55;6.57;;;2.67;;
60068;SDS011;45945;53.350;55.922;2023-02-01T01:55:58;5.25;;;1.65;;
60068;SDS011;45945;53.350;55.922;2023-02-01T01:57:00;6.63;;;1.90;;
60068;SDS011;45945;53.350;55.922;2023-02-01T01:58:04;8.48;;;3.25;;
60068;SDS011;45945;53.350;55.922;2023-02-01T01:59:06;5.35;;;2.08;;
60068;SDS011;45945;53.350;55.922;2023-02-01T02:00:08;6.43;;;2.50;;
60068;SDS011;45945;53.350;55.922;2023-02-01T02:01:15;8.60;;;3.00;;
60068;SDS011;45945;53.350;55.922;2023-02-01T02:02:17;5.65;;;2.42;;
60068;SDS011;45945;53.350;55.922;2023-02-01T02:03:19;8.50;;;4.10;;
60068;SDS011;45945;53.350;55.922;2023-02-01T02:04:20;9.20;;;2.33;;
60068;SDS011;45945;53.350;55.922;2023-02-01T02:05:21;8.05;;;2.60;;
60068;SDS011;45945;53.350;55.922;2023-02-01T02:07:25;14.98;;;6.25;;
60068;SDS011;45945;53.350;55.922;2023-02-01T02:08:27;7.00;;;3.08;;
60068;SDS011;45945;53.350;55.922;2023-02-01T02:09:29;7.30;;;2.83;;
60068;SDS011;45945;53.350;55.922;2023-02-01T02:10:29;8.27;;;3.08;;
60068;SDS011;45945;53.350;55.922;2023-02-01T02:11:50;7.38;;;2.47;;
60068;SDS011;45945;53.350;55.922;2023-02-01T02:12:50;8.18;;;3.35;;
60068;SDS011;45945;53.350;55.922;2023-02-01T02:13:52;8.65;;;3.40;;
60068;SDS011;45945;53.350;55.922;2023-02-01T02:14:54;6.32;;;2.40;;
60068;SDS011;45945;53.350;55.922;2023-02-01T02:18:19;7.63;;;3.13;;
60068;SDS011;45945;53.350;55.922;2023-02-01T02:23:52;11.43;;;5.35;;
60068;SDS011;45945;53.350;55.922;2023-02-01T02:28:37;7.00;;;2.47;;
60068;SDS011;45945;53.350;55.922;2023-02-01T02:29:49;9.10;;;2.67;;
60068;SDS011;45945;53.350;55.922;2023-02-01T02:34:27;6.72;;;2.83;;
60068;SDS011;45945;53.350;55.922;2023-02-01T02:36:36;7.40;;;2.80;;
60068;SDS011;45945;53.350;55.922;2023-02-01T02:37:39;8.35;;;2.75;;
60068;SDS011;45945;53.350;55.922;2023-02-01T02:38:44;10.68;;;4.35;;
60068;SDS011;45945;53.350;55.922;2023-02-01T02:40:54;9.30;;;3.33;;
60068;SDS011;45945;53.350;55.922;2023-02-01T02:42:00;8.63;;;2.95;;
60068;SDS011;45945;53.350;55.922;2023-02-01T02:46:46;3.50;;;1.52;;
60068;SDS011;45945;53.350;55.922;2023-02-01T02:48:20;7.28;;;2.78;;
60068;SDS011;45945;53.350;55.922;2023-02-01T02:49:28;8.05;;;2.40;;
60068;SDS011;45945;53.350;55.922;2023-02-01T02:50:37;8.02;;;2.83;;
60068;SDS011;45945;53.350;55.922;2023-02-01T02:52:12;9.07;;;3.05;;
60068;SDS011;45945;53.350;55.922;2023-02-01T02:53:38;13.57;;;5.32;;
60068;SDS011;45945;53.350;55.922;2023-02-01T02:54:58;6.60;;;2.08;;
60068;SDS011;45945;53.350;55.922;2023-02-01T02:56:00;11.82;;;4.88;;
60068;SDS011;45945;53.350;55.922;2023-02-01T02:57:22;13.63;;;5.00;;
60068;SDS011;45945;53.350;55.922;2023-02-01T02:58:43;11.43;;;5.30;;
60068;SDS011;45945;53.350;55.922;2023-02-01T03:00:06;7.07;;;3.08;;
60068;SDS011;45945;53.350;55.922;2023-02-01T03:01:27;11.18;;;5.22;;
60068;SDS011;45945;53.350;55.922;2023-02-01T03:02:47;11.35;;;5.15;;
60068;SDS011;45945;53.350;55.922;2023-02-01T03:04:07;14.38;;;5.47;;
60068;SDS011;45945;53.350;55.922;2023-02-01T03:05:15;25.63;;;11.60;;
60068;SDS011;45945;53.350;55.922;2023-02-01T03:06:22;20.88;;;8.70;;
60068;SDS011;45945;53.350;55.922;2023-02-01T03:08:43;22.60;;;9.05;;
60068;SDS011;45945;53.350;55.922;2023-02-01T03:09:46;22.92;;;9.73;;
60068;SDS011;45945;53.350;55.922;2023-02-01T03:11:52;21.15;;;9.10;;
60068;SDS011;45945;53.350;55.922;2023-02-01T03:13:20;24.83;;;8.20;;
60068;SDS011;45945;53.350;55.922;2023-02-01T03:14:25;20.08;;;8.15;;
60068;SDS011;45945;53.350;55.922;2023-02-01T03:15:32;18.50;;;8.05;;
60068;SDS011;45945;53.350;55.922;2023-02-01T03:16:38;19.88;;;8.75;;
60068;SDS011;45945;53.350;55.922;2023-02-01T03:17:42;22.75;;;7.60;;
60068;SDS011;45945;53.350;55.922;2023-02-01T03:19:58;16.00;;;7.18;;
60068;SDS011;45945;53.350;55.922;2023-02-01T03:21:02;21.98;;;8.88;;
60068;SDS011;45945;53.350;55.922;2023-02-01T03:22:07;20.42;;;9.07;;
60068;SDS011;45945;53.350;55.922;2023-02-01T03:23:09;21.75;;;9.57;;
60068;SDS011;45945;53.350;55.922;2023-02-01T03:24:12;25.67;;;10.23;;
60068;SDS011;45945;53.350;55.922;2023-02-01T03:25:18;22.33;;;9.98;;
60068;SDS011;45945;53.350;55.922;2023-02-01T03:26:23;18.70;;;9.10;;
60068;SDS011;45945;53.350;55.922;2023-02-01T03:28:30;26.33;;;9.80;;
60068;SDS011;45945;53.350;55.922;2023-02-01T03:29:35;20.38;;;9.63;;
60068;SDS011;45945;53.350;55.922;2023-02-01T03:30:38;17.30;;;8.43;;
60068;SDS011;45945;53.350;55.922;2023-02-01T03:31:41;21.40;;;8.32;;
60068;SDS011;45945;53.350;55.922;2023-02-01T03:32:43;19.48;;;8.48;;
60068;SDS011;45945;53.350;55.922;2023-02-01T03:34:00;22.92;;;10.23;;
60068;SDS011;45945;53.350;55.922;2023-02-01T03:35:02;15.77;;;8.35;;
60068;SDS011;45945;53.350;55.922;2023-02-01T03:37:11;27.00;;;10.85;;
60068;SDS011;45945;53.350;55.922;2023-02-01T03:39:27;28.25;;;11.15;;
60068;SDS011;45945;53.350;55.922;2023-02-01T03:40:30;22.25;;;9.95;;
60068;SDS011;45945;53.350;55.922;2023-02-01T03:42:35;16.05;;;6.88;;
60068;SDS011;45945;53.350;55.922;2023-02-01T03:43:58;17.42;;;8.45;;
60068;SDS011;45945;53.350;55.922;2023-02-01T03:46:32;19.40;;;7.75;;
60068;SDS011;45945;53.350;55.922;2023-02-01T03:47:35;20.40;;;8.32;;
60068;SDS011;45945;53.350;55.922;2023-02-01T03:48:36;14.55;;;6.68;;
60068;SDS011;45945;53.350;55.922;2023-02-01T03:49:43;20.02;;;6.90;;
60068;SDS011;45945;53.350;55.922;2023-02-01T03:50:46;17.92;;;8.55;;
60068;SDS011;45945;53.350;55.922;2023-02-01T03:51:49;17.42;;;8.23;;
60068;SDS011;45945;53.350;55.922;2023-02-01T03:52:53;16.50;;;7.97;;
60068;SDS011;45945;53.350;55.922;2023-02-01T03:53:54;19.73;;;9.70;;
60068;SDS011;45945;53.350;55.922;2023-02-01T03:55:15;21.95;;;10.13;;
60068;SDS011;45945;53.350;55.922;2023-02-01T03:56:17;20.83;;;8.88;;
60068;SDS011;45945;53.350;55.922;2023-02-01T03:57:22;18.63;;;8.00;;
60068;SDS011;45945;53.350;55.922;2023-02-01T03:58:24;18.48;;;8.70;;
60068;SDS011;45945;53.350;55.922;2023-02-01T03:59:25;15.82;;;7.82;;
60068;SDS011;45945;53.350;55.922;2023-02-01T04:00:26;17.95;;;8.75;;
60068;SDS011;45945;53.350;55.922;2023-02-01T04:01:29;18.90;;;8.63;;
60068;SDS011;45945;53.350;55.922;2023-02-01T04:02:31;17.48;;;7.38;;
60068;SDS011;45945;53.350;55.922;2023-02-01T04:03:32;16.25;;;7.65;;
60068;SDS011;45945;53.350;55.922;2023-02-01T04:04:34;23.70;;;9.25;;
60068;SDS011;45945;53.350;55.922;2023-02-01T04:05:35;24.55;;;9.93;;
60068;SDS011;45945;53.350;55.922;2023-02-01T04:06:38;16.13;;;7.40;;
60068;SDS011;45945;53.350;55.922;2023-02-01T04:07:40;20.75;;;9.07;;
60068;SDS011;45945;53.350;55.922;2023-02-01T04:08:41;17.08;;;8.35;;
60068;SDS011;45945;53.350;55.922;2023-02-01T04:09:42;18.42;;;8.40;;
60068;SDS011;45945;53.350;55.922;2023-02-01T04:10:43;17.73;;;9.10;;
60068;SDS011;45945;53.350;55.922;2023-02-01T04:11:44;20.25;;;7.57;;
60068;SDS011;45945;53.350;55.922;2023-02-01T04:13:03;16.58;;;7.82;;
60068;SDS011;45945;53.350;55.922;2023-02-01T04:14:04;19.23;;;9.27;;
60068;SDS011;45945;53.350;55.922;2023-02-01T04:15:05;16.63;;;7.75;;
60068;SDS011;45945;53.350;55.922;2023-02-01T04:16:06;20.58;;;8.68;;
60068;SDS011;45945;53.350;55.922;2023-02-01T04:17:07;18.73;;;9.23;;
60068;SDS011;45945;53.350;55.922;2023-02-01T04:18:08;16.35;;;7.05;;
60068;SDS011;45945;53.350;55.922;2023-02-01T04:19:09;15.52;;;7.70;;
60068;SDS011;45945;53.350;55.922;2023-02-01T04:20:10;20.80;;;9.20;;
60068;SDS011;45945;53.350;55.922;2023-02-01T04:21:11;22.55;;;9.38;;
60068;SDS011;45945;53.350;55.922;2023-02-01T04:22:11;16.75;;;8.60;;
60068;SDS011;45945;53.350;55.922;2023-02-01T04:23:12;21.20;;;10.00;;
60068;SDS011;45945;53.350;55.922;2023-02-01T04:24:13;17.52;;;8.15;;
60068;SDS011;45945;53.350;55.922;2023-02-01T04:25:14;15.15;;;6.80;;
60068;SDS011;45945;53.350;55.922;2023-02-01T04:26:20;13.10;;;5.15;;
60068;SDS011;45945;53.350;55.922;2023-02-01T04:27:22;17.80;;;8.38;;
60068;SDS011;45945;53.350;55.922;2023-02-01T04:28:26;19.05;;;8.52;;
60068;SDS011;45945;53.350;55.922;2023-02-01T04:29:26;23.13;;;9.18;;
60068;SDS011;45945;53.350;55.922;2023-02-01T04:30:27;17.05;;;7.97;;
60068;SDS011;45945;53.350;55.922;2023-02-01T04:31:28;18.02;;;8.68;;
60068;SDS011;45945;53.350;55.922;2023-02-01T04:32:29;18.48;;;8.00;;
60068;SDS011;45945;53.350;55.922;2023-02-01T04:33:30;16.98;;;8.40;;
60068;SDS011;45945;53.350;55.922;2023-02-01T04:34:31;22.23;;;9.13;;
60068;SDS011;45945;53.350;55.922;2023-02-01T04:35:31;19.20;;;8.50;;
60068;SDS011;45945;53.350;55.922;2023-02-01T04:36:32;17.17;;;8.43;;
60068;SDS011;45945;53.350;55.922;2023-02-01T04:37:33;18.90;;;9.15;;
60068;SDS011;45945;53.350;55.922;2023-02-01T04:38:34;15.50;;;8.05;;
60068;SDS011;45945;53.350;55.922;2023-02-01T04:39:35;21.08;;;7.55;;
60068;SDS011;45945;53.350;55.922;2023-02-01T04:40:36;17.58;;;7.80;;
60068;SDS011;45945;53.350;55.922;2023-02-01T04:41:38;11.02;;;4.88;;
60068;SDS011;45945;53.350;55.922;2023-02-01T04:42:39;20.10;;;8.52;;
60068;SDS011;45945;53.350;55.922;2023-02-01T04:43:58;20.42;;;10.07;;
60068;SDS011;45945;53.350;55.922;2023-02-01T04:44:59;22.30;;;9.68;;
60068;SDS011;45945;53.350;55.922;2023-02-01T04:46:00;16.77;;;8.85;;
60068;SDS011;45945;53.350;55.922;2023-02-01T04:47:00;19.98;;;10.43;;
60068;SDS011;45945;53.350;55.922;2023-02-01T04:48:01;19.60;;;9.85;;
60068;SDS011;45945;53.350;55.922;2023-02-01T04:49:02;20.40;;;9.63;;
60068;SDS011;45945;53.350;55.922;2023-02-01T04:50:03;22.25;;;8.90;;
60068;SDS011;45945;53.350;55.922;2023-02-01T04:51:04;21.98;;;8.52;;
60068;SDS011;45945;53.350;55.922;2023-02-01T04:52:05;18.25;;;9.52;;
60068;SDS011;45945;53.350;55.922;2023-02-01T04:53:09;16.40;;;7.63;;
60068;SDS011;45945;53.350;55.922;2023-02-01T04:54:09;16.90;;;10.07;;
60068;SDS011;45945;53.350;55.922;2023-02-01T04:55:13;19.05;;;9.23;;
60068;SDS011;45945;53.350;55.922;2023-02-01T04:56:14;18.08;;;8.52;;
60068;SDS011;45945;53.350;55.922;2023-02-01T04:57:15;22.42;;;12.10;;
60068;SDS011;45945;53.350;55.922;2023-02-01T04:58:15;23.42;;;12.73;;
60068;SDS011;45945;53.350;55.922;2023-02-01T04:59:16;21.33;;;10.77;;
60068;SDS011;45945;53.350;55.922;2023-02-01T05:00:36;19.67;;;9.80;;
60068;SDS011;45945;53.350;55.922;2023-02-01T05:01:37;24.80;;;9.82;;
60068;SDS011;45945;53.350;55.922;2023-02-01T05:02:38;17.08;;;10.10;;
60068;SDS011;45945;53.350;55.922;2023-02-01T05:03:39;17.48;;;8.25;;
60068;SDS011;45945;53.350;55.922;2023-02-01T05:04:40;17.25;;;7.15;;
60068;SDS011;45945;53.350;55.922;2023-02-01T05:05:41;16.38;;;7.10;;
60068;SDS011;45945;53.350;55.922;2023-02-01T05:06:41;18.23;;;8.10;;
60068;SDS011;45945;53.350;55.922;2023-02-01T05:07:42;17.67;;;7.25;;
60068;SDS011;45945;53.350;55.922;2023-02-01T05:08:43;21.90;;;7.22;;
60068;SDS011;45945;53.350;55.922;2023-02-01T05:09:44;13.98;;;5.75;;
60068;SDS011;45945;53.350;55.922;2023-02-01T05:10:45;16.33;;;7.53;;
60068;SDS011;45945;53.350;55.922;2023-02-01T05:11:45;16.00;;;6.80;;
60068;SDS011;45945;53.350;55.922;2023-02-01T05:13:04;10.45;;;5.85;;
60068;SDS011;45945;53.350;55.922;2023-02-01T05:14:24;6.60;;;3.35;;
60068;SDS011;45945;53.350;55.922;2023-02-01T05:15:24;16.10;;;6.90;;
60068;SDS011;45945;53.350;55.922;2023-02-01T05:16:25;13.60;;;6.28;;
60068;SDS011;45945;53.350;55.922;2023-02-01T05:17:26;20.63;;;9.07;;
60068;SDS011;45945;53.350;55.922;2023-02-01T05:18:45;14.85;;;7.82;;
60068;SDS011;45945;53.350;55.922;2023-02-01T05:19:46;21.80;;;8.73;;
60068;SDS011;45945;53.350;55.922;2023-02-01T05:20:47;17.40;;;7.35;;
60068;SDS011;45945;53.350;55.922;2023-02-01T05:21:47;23.58;;;9.52;;
60068;SDS011;45945;53.350;55.922;2023-02-01T05:22:48;22.20;;;10.80;;
60068;SDS011;45945;53.350;55.922;2023-02-01T05:24:08;36.65;;;16.60;;
60068;SDS011;45945;53.350;55.922;2023-02-01T05:25:14;36.35;;;15.80;;
60068;SDS011;45945;53.350;55.922;2023-02-01T05:26:15;13.02;;;5.32;;
60068;SDS011;45945;53.350;55.922;2023-02-01T05:27:15;32.20;;;15.18;;
60068;SDS011;45945;53.350;55.922;2023-02-01T05:28:16;36.63;;;15.07;;
60068;SDS011;45945;53.350;55.922;2023-02-01T05:29:17;25.88;;;11.00;;
60068;SDS011;45945;53.350;55.922;2023-02-01T05:30:18;17.13;;;6.80;;
60068;SDS011;45945;53.350;55.922;2023-02-01T05:31:19;31.75;;;11.82;;
60068;SDS011;45945;53.350;55.922;2023-02-01T05:32:20;28.20;;;11.70;;
60068;SDS011;45945;53.350;55.922;2023-02-01T05:33:21;28.45;;;12.13;;
60068;SDS011;45945;53.350;55.922;2023-02-01T05:34:21;27.50;;;10.85;;
60068;SDS011;45945;53.350;55.922;2023-02-01T05:35:22;24.00;;;11.13;;
60068;SDS011;45945;53.350;55.922;2023-02-01T05:36:23;17.30;;;6.47;;
60068;SDS011;45945;53.350;55.922;2023-02-01T05:37:24;30.25;;;12.50;;
60068;SDS011;45945;53.350;55.922;2023-02-01T05:38:25;26.67;;;11.02;;
60068;SDS011;45945;53.350;55.922;2023-02-01T05:39:25;10.65;;;5.20;;
60068;SDS011;45945;53.350;55.922;2023-02-01T05:40:26;10.68;;;4.60;;
60068;SDS011;45945;53.350;55.922;2023-02-01T05:41:27;15.75;;;6.07;;
60068;SDS011;45945;53.350;55.922;2023-02-01T05:42:28;5.35;;;2.42;;
60068;SDS011;45945;53.350;55.922;2023-02-01T05:43:28;7.55;;;2.65;;
60068;SDS011;45945;53.350;55.922;2023-02-01T05:44:29;6.30;;;2.95;;
60068;SDS011;45945;53.350;55.922;2023-02-01T05:45:30;3.42;;;2.25;;
60068;SDS011;45945;53.350;55.922;2023-02-01T05:46:31;5.47;;;1.98;;
60068;SDS011;45945;53.350;55.922;2023-02-01T05:47:32;5.13;;;2.20;;
60068;SDS011;45945;53.350;55.922;2023-02-01T05:48:33;5.30;;;2.70;;
60068;SDS011;45945;53.350;55.922;2023-02-01T05:49:34;3.33;;;1.77;;
60068;SDS011;45945;53.350;55.922;2023-02-01T05:50:35;12.45;;;5.88;;
60068;SDS011;45945;53.350;55.922;2023-02-01T05:51:43;5.45;;;2.67;;
60068;SDS011;45945;53.350;55.922;2023-02-01T05:52:43;9.05;;;3.58;;
60068;SDS011;45945;53.350;55.922;2023-02-01T05:53:44;9.95;;;4.93;;
60068;SDS011;45945;53.350;55.922;2023-02-01T05:54:45;10.65;;;4.72;;
60068;SDS011;45945;53.350;55.922;2023-02-01T05:55:47;8.57;;;2.95;;
60068;SDS011;45945;53.350;55.922;2023-02-01T05:56:48;5.45;;;1.60;;
60068;SDS011;45945;53.350;55.922;2023-02-01T05:57:49;2.40;;;1.05;;
60068;SDS011;45945;53.350;55.922;2023-02-01T05:58:49;8.90;;;3.60;;
60068;SDS011;45945;53.350;55.922;2023-02-01T05:59:51;6.38;;;2.30;;
60068;SDS011;45945;53.350;55.922;2023-02-01T06:00:51;11.10;;;5.53;;
60068;SDS011;45945;53.350;55.922;2023-02-01T06:01:52;7.35;;;2.88;;
60068;SDS011;45945;53.350;55.922;2023-02-01T06:02:53;10.43;;;4.38;;
60068;SDS011;45945;53.350;55.922;2023-02-01T06:03:54;6.05;;;3.22;;
60068;SDS011;45945;53.350;55.922;2023-02-01T06:04:54;9.73;;;3.65;;
60068;SDS011;45945;53.350;55.922;2023-02-01T06:05:55;10.77;;;3.47;;
60068;SDS011;45945;53.350;55.922;2023-02-01T06:06:56;11.43;;;4.88;;
60068;SDS011;45945;53.350;55.922;2023-02-01T06:07:57;9.70;;;3.75;;
60068;SDS011;45945;53.350;55.922;2023-02-01T06:08:58;9.90;;;3.83;;
60068;SDS011;45945;53.350;55.922;2023-02-01T06:10:00;12.60;;;5.50;;
60068;SDS011;45945;53.350;55.922;2023-02-01T06:11:02;8.68;;;2.38;;
60068;SDS011;45945;53.350;55.922;2023-02-01T06:12:03;8.52;;;3.40;;
60068;SDS011;45945;53.350;55.922;2023-02-01T06:13:04;7.88;;;3.70;;
60068;SDS011;45945;53.350;55.922;2023-02-01T06:14:05;11.98;;;4.47;;
60068;SDS011;45945;53.350;55.922;2023-02-01T06:15:08;10.70;;;3.95;;
60068;SDS011;45945;53.350;55.922;2023-02-01T06:16:09;7.78;;;3.22;;
60068;SDS011;45945;53.350;55.922;2023-02-01T06:17:09;10.73;;;4.18;;
60068;SDS011;45945;53.350;55.922;2023-02-01T06:18:10;10.70;;;4.47;;
60068;SDS011;45945;53.350;55.922;2023-02-01T06:19:11;11.02;;;4.00;;
60068;SDS011;45945;53.350;55.922;2023-02-01T06:20:13;13.30;;;4.38;;
60068;SDS011;45945;53.350;55.922;2023-02-01T06:21:14;8.48;;;2.83;;
60068;SDS011;45945;53.350;55.922;2023-02-01T06:22:23;10.45;;;3.72;;
60068;SDS011;45945;53.350;55.922;2023-02-01T06:23:24;8.00;;;2.78;;
60068;SDS011;45945;53.350;55.922;2023-02-01T06:24:25;6.50;;;2.60;;
60068;SDS011;45945;53.350;55.922;2023-02-01T06:25:44;11.95;;;4.10;;
60068;SDS011;45945;53.350;55.922;2023-02-01T06:26:45;9.68;;;4.47;;
60068;SDS011;45945;53.350;55.922;2023-02-01T06:27:46;10.05;;;3.40;;
60068;SDS011;45945;53.350;55.922;2023-02-01T06:28:47;9.13;;;3.72;;
60068;SDS011;45945;53.350;55.922;2023-02-01T06:29:48;8.75;;;3.63;;
60068;SDS011;45945;53.350;55.922;2023-02-01T06:30:48;6.57;;;2.45;;
60068;SDS011;45945;53.350;55.922;2023-02-01T06:31:49;7.32;;;3.13;;
60068;SDS011;45945;53.350;55.922;2023-02-01T06:32:51;8.07;;;3.22;;
60068;SDS011;45945;53.350;55.922;2023-02-01T06:33:57;9.40;;;5.10;;
60068;SDS011;45945;53.350;55.922;2023-02-01T06:34:58;10.57;;;3.88;;
60068;SDS011;45945;53.350;55.922;2023-02-01T06:36:01;8.48;;;2.97;;
60068;SDS011;45945;53.350;55.922;2023-02-01T06:37:02;7.47;;;3.47;;
60068;SDS011;45945;53.350;55.922;2023-02-01T06:38:03;6.10;;;3.03;;
60068;SDS011;45945;53.350;55.922;2023-02-01T06:39:03;11.35;;;4.15;;
60068;SDS011;45945;53.350;55.922;2023-02-01T06:40:04;6.75;;;3.10;;
60068;SDS011;45945;53.350;55.922;2023-02-01T06:41:05;10.68;;;3.65;;
60068;SDS011;45945;53.350;55.922;2023-02-01T06:42:06;9.45;;;3.67;;
60068;SDS011;45945;53.350;55.922;2023-02-01T06:43:07;8.13;;;3.08;;
60068;SDS011;45945;53.350;55.922;2023-02-01T06:44:08;10.05;;;4.40;;
60068;SDS011;45945;53.350;55.922;2023-02-01T06:45:09;7.03;;;3.05;;